sensor_id;sensor_type;location;lat;lon;timestamp;temperature;humidity
9666;DHT22;4871;52.004;5.924;2023-04-24T00:00:07;11.3;70.4
9666;DHT22;4871;52.004;5.924;2023-04-24T00:01:01;11.3;70.6
9666;DHT22;4871;52.004;5.924;2023-04-24T00:02:06;11.2;71.1
9666;DHT22;4871;52.004;5.924;2023-04-24T00:03:00;11.2;70.8
9666;DHT22;4871;52.004;5.924;2023-04-24T00:04:03;11.2;70.6
9666;DHT22;4871;52.004;5.924;2023-04-24T00:05:02;11.2;71.2
9666;DHT22;4871;52.004;5.924;2023-04-24T00:06:05;11.2;72.0
9666;DHT22;4871;52.004;5.924;2023-04-24T00:07:00;11.2;71.4
9666;DHT22;4871;52.004;5.924;2023-04-24T00:08:04;11.2;70.7
9666;DHT22;4871;52.004;5.924;2023-04-24T00:09:00;11.3;70.3
9666;DHT22;4871;52.004;5.924;2023-04-24T00:10:06;11.3;70.5
9666;DHT22;4871;52.004;5.924;2023-04-24T00:11:00;11.2;70.8
9666;DHT22;4871;52.004;5.924;2023-04-24T00:12:05;11.3;70.5
9666;DHT22;4871;52.004;5.924;2023-04-24T00:13:00;11.3;70.8
9666;DHT22;4871;52.004;5.924;2023-04-24T00:14:04;11.3;70.1
9666;DHT22;4871;52.004;5.924;2023-04-24T00:15:01;11.3;70.7
9666;DHT22;4871;52.004;5.924;2023-04-24T00:16:05;11.2;71.3
9666;DHT22;4871;52.004;5.924;2023-04-24T00:17:00;11.2;71.2
9666;DHT22;4871;52.004;5.924;2023-04-24T00:18:04;11.2;71.1
9666;DHT22;4871;52.004;5.924;2023-04-24T00:19:00;11.2;70.7
9666;DHT22;4871;52.004;5.924;2023-04-24T00:20:07;11.2;72.2
9666;DHT22;4871;52.004;5.924;2023-04-24T00:21:00;11.2;71.1
9666;DHT22;4871;52.004;5.924;2023-04-24T00:22:05;11.2;71.4
9666;DHT22;4871;52.004;5.924;2023-04-24T00:23:00;11.2;70.4
9666;DHT22;4871;52.004;5.924;2023-04-24T00:24:04;11.3;70.4
9666;DHT22;4871;52.004;5.924;2023-04-24T00:25:00;11.2;70.1
9666;DHT22;4871;52.004;5.924;2023-04-24T00:26:03;11.2;72.3
9666;DHT22;4871;52.004;5.924;2023-04-24T00:27:01;11.2;71.7
9666;DHT22;4871;52.004;5.924;2023-04-24T00:28:04;11.2;71.7
9666;DHT22;4871;52.004;5.924;2023-04-24T00:29:00;11.2;72.0
9666;DHT22;4871;52.004;5.924;2023-04-24T00:30:06;11.2;71.3
9666;DHT22;4871;52.004;5.924;2023-04-24T00:31:00;11.2;71.4
9666;DHT22;4871;52.004;5.924;2023-04-24T00:32:03;11.2;70.7
9666;DHT22;4871;52.004;5.924;2023-04-24T00:33:00;11.2;70.6
9666;DHT22;4871;52.004;5.924;2023-04-24T00:34:04;11.2;71.1
9666;DHT22;4871;52.004;5.924;2023-04-24T00:35:00;11.2;70.7
9666;DHT22;4871;52.004;5.924;2023-04-24T00:36:04;11.2;71.2
9666;DHT22;4871;52.004;5.924;2023-04-24T00:37:00;11.2;71.7
9666;DHT22;4871;52.004;5.924;2023-04-24T00:38:04;11.1;71.8
9666;DHT22;4871;52.004;5.924;2023-04-24T00:39:00;11.2;71.2
9666;DHT22;4871;52.004;5.924;2023-04-24T00:40:05;11.2;71.1
9666;DHT22;4871;52.004;5.924;2023-04-24T00:41:00;11.2;71.2
9666;DHT22;4871;52.004;5.924;2023-04-24T00:42:06;11.2;70.8
9666;DHT22;4871;52.004;5.924;2023-04-24T00:43:00;11.2;71.0
9666;DHT22;4871;52.004;5.924;2023-04-24T00:44:04;11.2;71.2
9666;DHT22;4871;52.004;5.924;2023-04-24T00:45:00;11.2;71.0
9666;DHT22;4871;52.004;5.924;2023-04-24T00:46:03;11.2;71.1
9666;DHT22;4871;52.004;5.924;2023-04-24T00:47:00;11.2;70.8
9666;DHT22;4871;52.004;5.924;2023-04-24T00:48:03;11.2;71.3
9666;DHT22;4871;52.004;5.924;2023-04-24T00:49:00;11.2;71.5
9666;DHT22;4871;52.004;5.924;2023-04-24T00:50:05;11.1;71.6
9666;DHT22;4871;52.004;5.924;2023-04-24T00:51:00;11.1;71.7
9666;DHT22;4871;52.004;5.924;2023-04-24T00:52:08;11.1;71.4
9666;DHT22;4871;52.004;5.924;2023-04-24T00:53:00;11.1;71.3
9666;DHT22;4871;52.004;5.924;2023-04-24T00:54:05;11.1;71.2
9666;DHT22;4871;52.004;5.924;2023-04-24T00:55:00;11.2;71.2
9666;DHT22;4871;52.004;5.924;2023-04-24T00:56:05;11.1;71.6
9666;DHT22;4871;52.004;5.924;2023-04-24T00:57:01;11.1;71.4
9666;DHT22;4871;52.004;5.924;2023-04-24T00:58:04;11.1;71.4
9666;DHT22;4871;52.004;5.924;2023-04-24T00:59:00;11.1;71.4
9666;DHT22;4871;52.004;5.924;2023-04-24T01:00:07;11.1;71.3
9666;DHT22;4871;52.004;5.924;2023-04-24T01:01:01;11.1;71.4
9666;DHT22;4871;52.004;5.924;2023-04-24T01:02:05;11.1;71.3
9666;DHT22;4871;52.004;5.924;2023-04-24T01:03:01;11.1;71.0
9666;DHT22;4871;52.004;5.924;2023-04-24T01:04:07;11.1;71.3
9666;DHT22;4871;52.004;5.924;2023-04-24T01:05:00;11.1;71.0
9666;DHT22;4871;52.004;5.924;2023-04-24T01:06:05;11.1;71.2
9666;DHT22;4871;52.004;5.924;2023-04-24T01:07:00;11.1;71.0
9666;DHT22;4871;52.004;5.924;2023-04-24T01:08:03;11.1;72.2
9666;DHT22;4871;52.004;5.924;2023-04-24T01:09:00;11.1;71.3
9666;DHT22;4871;52.004;5.924;2023-04-24T01:10:03;11.1;71.4
9666;DHT22;4871;52.004;5.924;2023-04-24T01:11:03;11.1;71.4
9666;DHT22;4871;52.004;5.924;2023-04-24T01:12:05;11.1;70.9
9666;DHT22;4871;52.004;5.924;2023-04-24T01:13:00;11.1;71.2
9666;DHT22;4871;52.004;5.924;2023-04-24T01:14:03;11.1;70.8
9666;DHT22;4871;52.004;5.924;2023-04-24T01:15:00;11.1;71.0
9666;DHT22;4871;52.004;5.924;2023-04-24T01:16:05;11.1;70.9
9666;DHT22;4871;52.004;5.924;2023-04-24T01:17:00;11.1;70.6
9666;DHT22;4871;52.004;5.924;2023-04-24T01:18:04;11.1;71.1
9666;DHT22;4871;52.004;5.924;2023-04-24T01:19:00;11.1;70.9
9666;DHT22;4871;52.004;5.924;2023-04-24T01:20:06;11.1;71.1
9666;DHT22;4871;52.004;5.924;2023-04-24T01:21:03;11.0;71.2
9666;DHT22;4871;52.004;5.924;2023-04-24T01:22:08;11.0;70.9
9666;DHT22;4871;52.004;5.924;2023-04-24T01:23:00;11.1;70.7
9666;DHT22;4871;52.004;5.924;2023-04-24T01:24:06;11.0;71.0
9666;DHT22;4871;52.004;5.924;2023-04-24T01:25:00;11.0;71.1
9666;DHT22;4871;52.004;5.924;2023-04-24T01:26:04;11.0;70.8
9666;DHT22;4871;52.004;5.924;2023-04-24T01:27:01;11.0;71.0
9666;DHT22;4871;52.004;5.924;2023-04-24T01:28:04;11.0;70.8
9666;DHT22;4871;52.004;5.924;2023-04-24T01:29:00;11.0;71.3
9666;DHT22;4871;52.004;5.924;2023-04-24T01:30:06;11.0;71.8
9666;DHT22;4871;52.004;5.924;2023-04-24T01:31:00;11.0;71.8
9666;DHT22;4871;52.004;5.924;2023-04-24T01:32:05;11.0;71.7
9666;DHT22;4871;52.004;5.924;2023-04-24T01:33:00;11.0;71.5
9666;DHT22;4871;52.004;5.924;2023-04-24T01:34:05;11.0;70.9
9666;DHT22;4871;52.004;5.924;2023-04-24T01:35:00;11.0;71.0
9666;DHT22;4871;52.004;5.924;2023-04-24T01:36:04;11.0;71.2
9666;DHT22;4871;52.004;5.924;2023-04-24T01:37:00;11.0;71.7
9666;DHT22;4871;52.004;5.924;2023-04-24T01:38:05;11.0;71.5
9666;DHT22;4871;52.004;5.924;2023-04-24T01:39:00;11.0;71.8
9666;DHT22;4871;52.004;5.924;2023-04-24T01:40:06;11.0;71.8
9666;DHT22;4871;52.004;5.924;2023-04-24T01:41:00;11.0;71.6
9666;DHT22;4871;52.004;5.924;2023-04-24T01:42:04;11.0;71.1
9666;DHT22;4871;52.004;5.924;2023-04-24T01:43:00;11.0;71.3
9666;DHT22;4871;52.004;5.924;2023-04-24T01:44:04;11.0;71.4
9666;DHT22;4871;52.004;5.924;2023-04-24T01:45:01;11.0;71.2
9666;DHT22;4871;52.004;5.924;2023-04-24T01:46:04;11.0;71.5
9666;DHT22;4871;52.004;5.924;2023-04-24T01:47:00;11.0;71.4
9666;DHT22;4871;52.004;5.924;2023-04-24T01:48:04;11.0;71.2
9666;DHT22;4871;52.004;5.924;2023-04-24T01:49:00;11.0;71.4
9666;DHT22;4871;52.004;5.924;2023-04-24T01:50:06;11.0;71.5
9666;DHT22;4871;52.004;5.924;2023-04-24T01:51:00;10.9;71.3
9666;DHT22;4871;52.004;5.924;2023-04-24T01:52:04;10.9;71.0
9666;DHT22;4871;52.004;5.924;2023-04-24T01:53:00;10.9;71.0
9666;DHT22;4871;52.004;5.924;2023-04-24T01:54:03;10.9;71.3
9666;DHT22;4871;52.004;5.924;2023-04-24T01:55:00;11.0;71.4
9666;DHT22;4871;52.004;5.924;2023-04-24T01:56:03;11.0;71.6
9666;DHT22;4871;52.004;5.924;2023-04-24T01:57:02;10.9;71.5
9666;DHT22;4871;52.004;5.924;2023-04-24T01:58:04;11.0;71.1
9666;DHT22;4871;52.004;5.924;2023-04-24T01:59:00;11.0;70.7
9666;DHT22;4871;52.004;5.924;2023-04-24T02:00:07;10.9;71.4
9666;DHT22;4871;52.004;5.924;2023-04-24T02:01:00;10.9;71.4
9666;DHT22;4871;52.004;5.924;2023-04-24T02:02:04;10.9;71.3
9666;DHT22;4871;52.004;5.924;2023-04-24T02:03:01;10.9;71.4
9666;DHT22;4871;52.004;5.924;2023-04-24T02:04:05;10.9;71.2
9666;DHT22;4871;52.004;5.924;2023-04-24T02:05:00;10.9;71.2
9666;DHT22;4871;52.004;5.924;2023-04-24T02:06:04;10.9;71.1
9666;DHT22;4871;52.004;5.924;2023-04-24T02:07:00;10.9;71.0
9666;DHT22;4871;52.004;5.924;2023-04-24T02:08:04;10.9;71.0
9666;DHT22;4871;52.004;5.924;2023-04-24T02:09:00;10.9;71.1
9666;DHT22;4871;52.004;5.924;2023-04-24T02:10:04;10.9;71.1
9666;DHT22;4871;52.004;5.924;2023-04-24T02:11:01;11.0;70.7
9666;DHT22;4871;52.004;5.924;2023-04-24T02:12:05;10.9;70.8
9666;DHT22;4871;52.004;5.924;2023-04-24T02:13:00;10.9;70.8
9666;DHT22;4871;52.004;5.924;2023-04-24T02:14:04;10.9;70.8
9666;DHT22;4871;52.004;5.924;2023-04-24T02:15:00;11.0;70.4
9666;DHT22;4871;52.004;5.924;2023-04-24T02:16:05;11.0;70.1
9666;DHT22;4871;52.004;5.924;2023-04-24T02:17:00;10.9;70.4
9666;DHT22;4871;52.004;5.924;2023-04-24T02:18:04;10.9;71.2
9666;DHT22;4871;52.004;5.924;2023-04-24T02:19:00;10.9;70.9
9666;DHT22;4871;52.004;5.924;2023-04-24T02:20:05;10.9;71.0
9666;DHT22;4871;52.004;5.924;2023-04-24T02:21:00;10.9;70.9
9666;DHT22;4871;52.004;5.924;2023-04-24T02:22:04;10.9;71.4
9666;DHT22;4871;52.004;5.924;2023-04-24T02:23:00;10.9;70.8
9666;DHT22;4871;52.004;5.924;2023-04-24T02:24:04;10.9;70.9
9666;DHT22;4871;52.004;5.924;2023-04-24T02:25:00;10.9;70.6
9666;DHT22;4871;52.004;5.924;2023-04-24T02:26:05;10.9;70.6
9666;DHT22;4871;52.004;5.924;2023-04-24T02:27:00;10.9;71.3
9666;DHT22;4871;52.004;5.924;2023-04-24T02:28:05;10.9;71.0
9666;DHT22;4871;52.004;5.924;2023-04-24T02:29:00;10.9;70.5
9666;DHT22;4871;52.004;5.924;2023-04-24T02:30:06;10.9;70.2
9666;DHT22;4871;52.004;5.924;2023-04-24T02:31:00;10.9;70.4
9666;DHT22;4871;52.004;5.924;2023-04-24T02:32:04;10.9;70.6
9666;DHT22;4871;52.004;5.924;2023-04-24T02:33:00;10.9;70.4
9666;DHT22;4871;52.004;5.924;2023-04-24T02:34:03;10.9;70.2
9666;DHT22;4871;52.004;5.924;2023-04-24T02:35:00;11.0;69.7
9666;DHT22;4871;52.004;5.924;2023-04-24T02:36:03;11.0;70.0
9666;DHT22;4871;52.004;5.924;2023-04-24T02:37:00;11.0;69.9
9666;DHT22;4871;52.004;5.924;2023-04-24T02:38:04;10.9;70.3
9666;DHT22;4871;52.004;5.924;2023-04-24T02:39:01;10.9;70.4
9666;DHT22;4871;52.004;5.924;2023-04-24T02:40:07;10.9;70.2
9666;DHT22;4871;52.004;5.924;2023-04-24T02:41:00;10.9;70.7
9666;DHT22;4871;52.004;5.924;2023-04-24T02:42:04;10.9;71.2
9666;DHT22;4871;52.004;5.924;2023-04-24T02:43:00;10.8;71.0
9666;DHT22;4871;52.004;5.924;2023-04-24T02:44:04;10.8;71.3
9666;DHT22;4871;52.004;5.924;2023-04-24T02:45:00;10.8;71.3
9666;DHT22;4871;52.004;5.924;2023-04-24T02:46:04;10.8;71.5
9666;DHT22;4871;52.004;5.924;2023-04-24T02:47:00;10.8;71.2
9666;DHT22;4871;52.004;5.924;2023-04-24T02:48:05;10.8;71.0
9666;DHT22;4871;52.004;5.924;2023-04-24T02:49:00;10.8;71.1
9666;DHT22;4871;52.004;5.924;2023-04-24T02:50:05;10.8;71.0
9666;DHT22;4871;52.004;5.924;2023-04-24T02:51:00;10.8;70.9
9666;DHT22;4871;52.004;5.924;2023-04-24T02:52:03;10.9;70.5
9666;DHT22;4871;52.004;5.924;2023-04-24T02:53:00;10.9;71.9
9666;DHT22;4871;52.004;5.924;2023-04-24T02:54:04;10.8;71.7
9666;DHT22;4871;52.004;5.924;2023-04-24T02:55:00;10.8;71.7
9666;DHT22;4871;52.004;5.924;2023-04-24T02:56:04;10.8;72.1
9666;DHT22;4871;52.004;5.924;2023-04-24T02:57:01;10.8;72.2
9666;DHT22;4871;52.004;5.924;2023-04-24T02:58:03;10.8;72.5
9666;DHT22;4871;52.004;5.924;2023-04-24T02:59:00;10.8;72.3
9666;DHT22;4871;52.004;5.924;2023-04-24T03:00:07;10.8;71.5
9666;DHT22;4871;52.004;5.924;2023-04-24T03:01:00;10.8;71.4
9666;DHT22;4871;52.004;5.924;2023-04-24T03:02:05;10.8;72.2
9666;DHT22;4871;52.004;5.924;2023-04-24T03:03:00;10.8;71.5
9666;DHT22;4871;52.004;5.924;2023-04-24T03:04:04;10.8;71.8
9666;DHT22;4871;52.004;5.924;2023-04-24T03:05:00;10.8;72.0
9666;DHT22;4871;52.004;5.924;2023-04-24T03:06:05;10.8;72.3
9666;DHT22;4871;52.004;5.924;2023-04-24T03:07:01;10.7;72.8
9666;DHT22;4871;52.004;5.924;2023-04-24T03:08:06;10.7;74.2
9666;DHT22;4871;52.004;5.924;2023-04-24T03:09:00;10.7;72.6
9666;DHT22;4871;52.004;5.924;2023-04-24T03:10:04;10.8;72.2
9666;DHT22;4871;52.004;5.924;2023-04-24T03:11:00;10.8;72.3
9666;DHT22;4871;52.004;5.924;2023-04-24T03:12:04;10.8;72.1
9666;DHT22;4871;52.004;5.924;2023-04-24T03:13:00;10.8;72.1
9666;DHT22;4871;52.004;5.924;2023-04-24T03:14:04;10.7;72.6
9666;DHT22;4871;52.004;5.924;2023-04-24T03:15:00;10.7;72.8
9666;DHT22;4871;52.004;5.924;2023-04-24T03:16:03;10.7;72.7
9666;DHT22;4871;52.004;5.924;2023-04-24T03:17:00;10.7;72.8
9666;DHT22;4871;52.004;5.924;2023-04-24T03:18:04;10.7;72.6
9666;DHT22;4871;52.004;5.924;2023-04-24T03:19:00;10.8;72.4
9666;DHT22;4871;52.004;5.924;2023-04-24T03:20:06;10.8;72.0
9666;DHT22;4871;52.004;5.924;2023-04-24T03:21:00;10.8;72.0
9666;DHT22;4871;52.004;5.924;2023-04-24T03:22:05;10.8;71.9
9666;DHT22;4871;52.004;5.924;2023-04-24T03:23:00;10.8;71.4
9666;DHT22;4871;52.004;5.924;2023-04-24T03:24:03;10.8;71.5
9666;DHT22;4871;52.004;5.924;2023-04-24T03:25:00;10.8;71.6
9666;DHT22;4871;52.004;5.924;2023-04-24T03:26:05;10.8;71.4
9666;DHT22;4871;52.004;5.924;2023-04-24T03:27:00;10.8;71.4
9666;DHT22;4871;52.004;5.924;2023-04-24T03:28:03;10.8;71.4
9666;DHT22;4871;52.004;5.924;2023-04-24T03:29:00;10.8;71.5
9666;DHT22;4871;52.004;5.924;2023-04-24T03:30:07;10.8;71.9
9666;DHT22;4871;52.004;5.924;2023-04-24T03:31:00;10.7;72.1
9666;DHT22;4871;52.004;5.924;2023-04-24T03:32:04;10.8;71.8
9666;DHT22;4871;52.004;5.924;2023-04-24T03:33:00;10.8;71.5
9666;DHT22;4871;52.004;5.924;2023-04-24T03:34:06;10.7;71.9
9666;DHT22;4871;52.004;5.924;2023-04-24T03:35:00;10.7;72.0
9666;DHT22;4871;52.004;5.924;2023-04-24T03:36:04;10.7;71.6
9666;DHT22;4871;52.004;5.924;2023-04-24T03:37:00;10.7;72.4
9666;DHT22;4871;52.004;5.924;2023-04-24T03:38:04;10.7;71.7
9666;DHT22;4871;52.004;5.924;2023-04-24T03:39:00;10.7;72.3
9666;DHT22;4871;52.004;5.924;2023-04-24T03:40:04;10.7;71.9
9666;DHT22;4871;52.004;5.924;2023-04-24T03:41:00;10.7;72.3
9666;DHT22;4871;52.004;5.924;2023-04-24T03:42:04;10.7;72.7
9666;DHT22;4871;52.004;5.924;2023-04-24T03:43:00;10.7;73.3
9666;DHT22;4871;52.004;5.924;2023-04-24T03:44:04;10.7;72.6
9666;DHT22;4871;52.004;5.924;2023-04-24T03:45:00;10.7;72.3
9666;DHT22;4871;52.004;5.924;2023-04-24T03:46:03;10.7;72.7
9666;DHT22;4871;52.004;5.924;2023-04-24T03:47:00;10.7;72.7
9666;DHT22;4871;52.004;5.924;2023-04-24T03:48:04;10.7;72.8
9666;DHT22;4871;52.004;5.924;2023-04-24T03:49:00;10.7;72.5
9666;DHT22;4871;52.004;5.924;2023-04-24T03:50:05;10.7;73.3
9666;DHT22;4871;52.004;5.924;2023-04-24T03:51:00;10.7;72.3
9666;DHT22;4871;52.004;5.924;2023-04-24T03:52:03;10.7;72.9
9666;DHT22;4871;52.004;5.924;2023-04-24T03:53:00;10.7;72.8
9666;DHT22;4871;52.004;5.924;2023-04-24T03:54:05;10.7;72.1
9666;DHT22;4871;52.004;5.924;2023-04-24T03:55:00;10.7;72.1
9666;DHT22;4871;52.004;5.924;2023-04-24T03:56:03;10.7;72.1
9666;DHT22;4871;52.004;5.924;2023-04-24T03:57:01;10.7;72.0
9666;DHT22;4871;52.004;5.924;2023-04-24T03:58:03;10.7;71.9
9666;DHT22;4871;52.004;5.924;2023-04-24T03:59:00;10.7;72.1
9666;DHT22;4871;52.004;5.924;2023-04-24T04:00:06;10.7;72.3
9666;DHT22;4871;52.004;5.924;2023-04-24T04:01:00;10.7;72.3
9666;DHT22;4871;52.004;5.924;2023-04-24T04:02:05;10.7;71.9
9666;DHT22;4871;52.004;5.924;2023-04-24T04:03:00;10.7;72.3
9666;DHT22;4871;52.004;5.924;2023-04-24T04:04:04;10.7;72.1
9666;DHT22;4871;52.004;5.924;2023-04-24T04:05:00;10.7;71.9
9666;DHT22;4871;52.004;5.924;2023-04-24T04:06:04;10.7;72.2
9666;DHT22;4871;52.004;5.924;2023-04-24T04:07:02;10.7;71.8
9666;DHT22;4871;52.004;5.924;2023-04-24T04:08:04;10.7;71.4
9666;DHT22;4871;52.004;5.924;2023-04-24T04:09:00;10.7;71.7
9666;DHT22;4871;52.004;5.924;2023-04-24T04:10:05;10.7;71.7
9666;DHT22;4871;52.004;5.924;2023-04-24T04:11:00;10.7;71.9
9666;DHT22;4871;52.004;5.924;2023-04-24T04:12:04;10.7;71.8
9666;DHT22;4871;52.004;5.924;2023-04-24T04:13:00;10.7;72.2
9666;DHT22;4871;52.004;5.924;2023-04-24T04:14:05;10.7;72.3
9666;DHT22;4871;52.004;5.924;2023-04-24T04:15:00;10.6;73.3
9666;DHT22;4871;52.004;5.924;2023-04-24T04:16:03;10.6;72.5
9666;DHT22;4871;52.004;5.924;2023-04-24T04:17:00;10.6;72.3
9666;DHT22;4871;52.004;5.924;2023-04-24T04:18:05;10.6;73.3
9666;DHT22;4871;52.004;5.924;2023-04-24T04:19:00;10.6;72.4
9666;DHT22;4871;52.004;5.924;2023-04-24T04:20:07;10.6;72.7
9666;DHT22;4871;52.004;5.924;2023-04-24T04:21:01;10.6;72.7
9666;DHT22;4871;52.004;5.924;2023-04-24T04:22:04;10.6;72.9
9666;DHT22;4871;52.004;5.924;2023-04-24T04:23:00;10.6;72.7
9666;DHT22;4871;52.004;5.924;2023-04-24T04:24:05;10.6;72.4
9666;DHT22;4871;52.004;5.924;2023-04-24T04:25:00;10.6;72.3
9666;DHT22;4871;52.004;5.924;2023-04-24T04:26:05;10.6;72.1
9666;DHT22;4871;52.004;5.924;2023-04-24T04:27:00;10.6;72.4
9666;DHT22;4871;52.004;5.924;2023-04-24T04:28:04;10.6;72.3
9666;DHT22;4871;52.004;5.924;2023-04-24T04:29:03;10.6;72.2
9666;DHT22;4871;52.004;5.924;2023-04-24T04:30:05;10.5;73.0
9666;DHT22;4871;52.004;5.924;2023-04-24T04:31:00;10.6;72.3
9666;DHT22;4871;52.004;5.924;2023-04-24T04:32:04;10.6;72.2
9666;DHT22;4871;52.004;5.924;2023-04-24T04:33:00;10.5;72.2
9666;DHT22;4871;52.004;5.924;2023-04-24T04:34:03;10.5;72.5
9666;DHT22;4871;52.004;5.924;2023-04-24T04:35:03;10.5;72.8
9666;DHT22;4871;52.004;5.924;2023-04-24T04:36:05;10.5;72.3
9666;DHT22;4871;52.004;5.924;2023-04-24T04:37:01;10.5;72.0
9666;DHT22;4871;52.004;5.924;2023-04-24T04:38:08;10.5;72.4
9666;DHT22;4871;52.004;5.924;2023-04-24T04:39:00;10.5;72.1
9666;DHT22;4871;52.004;5.924;2023-04-24T04:40:07;10.5;72.1
9666;DHT22;4871;52.004;5.924;2023-04-24T04:41:00;10.5;72.2
9666;DHT22;4871;52.004;5.924;2023-04-24T04:42:03;10.5;72.1
9666;DHT22;4871;52.004;5.924;2023-04-24T04:43:00;10.5;71.8
9666;DHT22;4871;52.004;5.924;2023-04-24T04:44:04;10.5;72.0
9666;DHT22;4871;52.004;5.924;2023-04-24T04:45:00;10.5;71.8
9666;DHT22;4871;52.004;5.924;2023-04-24T04:46:04;10.5;71.6
9666;DHT22;4871;52.004;5.924;2023-04-24T04:47:00;10.5;72.3
9666;DHT22;4871;52.004;5.924;2023-04-24T04:48:04;10.4;73.4
9666;DHT22;4871;52.004;5.924;2023-04-24T04:49:00;10.4;72.6
9666;DHT22;4871;52.004;5.924;2023-04-24T04:50:05;10.4;72.2
9666;DHT22;4871;52.004;5.924;2023-04-24T04:51:00;10.5;72.6
9666;DHT22;4871;52.004;5.924;2023-04-24T04:52:05;10.5;71.8
9666;DHT22;4871;52.004;5.924;2023-04-24T04:53:00;10.5;72.0
9666;DHT22;4871;52.004;5.924;2023-04-24T04:54:04;10.4;72.6
9666;DHT22;4871;52.004;5.924;2023-04-24T04:55:00;10.4;72.3
9666;DHT22;4871;52.004;5.924;2023-04-24T04:56:05;10.4;72.1
9666;DHT22;4871;52.004;5.924;2023-04-24T04:57:00;10.4;71.8
9666;DHT22;4871;52.004;5.924;2023-04-24T04:58:03;10.4;71.9
9666;DHT22;4871;52.004;5.924;2023-04-24T04:59:00;10.4;72.5
9666;DHT22;4871;52.004;5.924;2023-04-24T05:00:06;10.4;72.6
9666;DHT22;4871;52.004;5.924;2023-04-24T05:01:00;10.4;72.4
9666;DHT22;4871;52.004;5.924;2023-04-24T05:02:04;10.5;71.2
9666;DHT22;4871;52.004;5.924;2023-04-24T05:03:00;10.5;72.0
9666;DHT22;4871;52.004;5.924;2023-04-24T05:04:05;10.5;71.7
9666;DHT22;4871;52.004;5.924;2023-04-24T05:05:00;10.5;71.6
9666;DHT22;4871;52.004;5.924;2023-04-24T05:06:05;10.4;72.0
9666;DHT22;4871;52.004;5.924;2023-04-24T05:07:00;10.4;71.8
9666;DHT22;4871;52.004;5.924;2023-04-24T05:08:05;10.4;71.6
9666;DHT22;4871;52.004;5.924;2023-04-24T05:09:00;10.5;71.3
9666;DHT22;4871;52.004;5.924;2023-04-24T05:10:05;10.5;71.8
9666;DHT22;4871;52.004;5.924;2023-04-24T05:11:00;10.5;71.5
9666;DHT22;4871;52.004;5.924;2023-04-24T05:12:04;10.4;71.5
9666;DHT22;4871;52.004;5.924;2023-04-24T05:13:00;10.4;72.2
9666;DHT22;4871;52.004;5.924;2023-04-24T05:14:03;10.4;71.6
9666;DHT22;4871;52.004;5.924;2023-04-24T05:15:00;10.4;71.8
9666;DHT22;4871;52.004;5.924;2023-04-24T05:16:04;10.4;71.4
9666;DHT22;4871;52.004;5.924;2023-04-24T05:17:00;10.4;71.2
9666;DHT22;4871;52.004;5.924;2023-04-24T05:18:05;10.4;71.2
9666;DHT22;4871;52.004;5.924;2023-04-24T05:19:00;10.4;72.0
9666;DHT22;4871;52.004;5.924;2023-04-24T05:20:06;10.4;71.7
9666;DHT22;4871;52.004;5.924;2023-04-24T05:21:00;10.4;72.1
9666;DHT22;4871;52.004;5.924;2023-04-24T05:22:06;10.4;71.5
9666;DHT22;4871;52.004;5.924;2023-04-24T05:23:00;10.4;71.4
9666;DHT22;4871;52.004;5.924;2023-04-24T05:24:05;10.4;71.4
9666;DHT22;4871;52.004;5.924;2023-04-24T05:25:00;10.4;72.5
9666;DHT22;4871;52.004;5.924;2023-04-24T05:26:04;10.4;71.6
9666;DHT22;4871;52.004;5.924;2023-04-24T05:27:00;10.4;71.6
9666;DHT22;4871;52.004;5.924;2023-04-24T05:28:05;10.4;72.3
9666;DHT22;4871;52.004;5.924;2023-04-24T05:29:00;10.3;72.3
9666;DHT22;4871;52.004;5.924;2023-04-24T05:30:05;10.3;73.9
9666;DHT22;4871;52.004;5.924;2023-04-24T05:31:01;10.3;72.5
9666;DHT22;4871;52.004;5.924;2023-04-24T05:32:04;10.3;71.9
9666;DHT22;4871;52.004;5.924;2023-04-24T05:33:00;10.4;71.9
9666;DHT22;4871;52.004;5.924;2023-04-24T05:34:05;10.4;71.7
9666;DHT22;4871;52.004;5.924;2023-04-24T05:35:00;10.4;71.4
9666;DHT22;4871;52.004;5.924;2023-04-24T05:36:06;10.4;71.4
9666;DHT22;4871;52.004;5.924;2023-04-24T05:37:00;10.4;71.3
9666;DHT22;4871;52.004;5.924;2023-04-24T05:38:04;10.4;71.4
9666;DHT22;4871;52.004;5.924;2023-04-24T05:39:00;10.4;71.5
9666;DHT22;4871;52.004;5.924;2023-04-24T05:40:06;10.4;71.2
9666;DHT22;4871;52.004;5.924;2023-04-24T05:41:00;10.4;71.4
9666;DHT22;4871;52.004;5.924;2023-04-24T05:42:06;10.4;71.2
9666;DHT22;4871;52.004;5.924;2023-04-24T05:43:00;10.4;71.0
9666;DHT22;4871;52.004;5.924;2023-04-24T05:44:04;10.4;71.2
9666;DHT22;4871;52.004;5.924;2023-04-24T05:45:00;10.4;71.0
9666;DHT22;4871;52.004;5.924;2023-04-24T05:46:04;10.4;70.8
9666;DHT22;4871;52.004;5.924;2023-04-24T05:47:00;10.4;71.1
9666;DHT22;4871;52.004;5.924;2023-04-24T05:48:06;10.4;71.2
9666;DHT22;4871;52.004;5.924;2023-04-24T05:49:00;10.4;71.1
9666;DHT22;4871;52.004;5.924;2023-04-24T05:50:06;10.4;71.0
9666;DHT22;4871;52.004;5.924;2023-04-24T05:51:00;10.5;70.9
9666;DHT22;4871;52.004;5.924;2023-04-24T05:52:05;10.5;70.7
9666;DHT22;4871;52.004;5.924;2023-04-24T05:53:01;10.5;70.6
9666;DHT22;4871;52.004;5.924;2023-04-24T05:54:04;10.5;70.4
9666;DHT22;4871;52.004;5.924;2023-04-24T05:55:00;10.5;70.7
9666;DHT22;4871;52.004;5.924;2023-04-24T05:56:04;10.5;70.8
9666;DHT22;4871;52.004;5.924;2023-04-24T05:57:04;10.5;70.5
9666;DHT22;4871;52.004;5.924;2023-04-24T05:58:06;10.5;69.9
9666;DHT22;4871;52.004;5.924;2023-04-24T05:59:00;10.6;70.5
9666;DHT22;4871;52.004;5.924;2023-04-24T06:00:06;10.6;70.2
9666;DHT22;4871;52.004;5.924;2023-04-24T06:01:01;10.6;70.2
9666;DHT22;4871;52.004;5.924;2023-04-24T06:02:05;10.6;69.4
9666;DHT22;4871;52.004;5.924;2023-04-24T06:03:00;10.6;70.0
9666;DHT22;4871;52.004;5.924;2023-04-24T06:04:04;10.6;70.0
9666;DHT22;4871;52.004;5.924;2023-04-24T06:05:00;10.6;70.0
9666;DHT22;4871;52.004;5.924;2023-04-24T06:06:05;10.6;70.0
9666;DHT22;4871;52.004;5.924;2023-04-24T06:07:00;10.6;69.9
9666;DHT22;4871;52.004;5.924;2023-04-24T06:08:04;10.6;69.8
9666;DHT22;4871;52.004;5.924;2023-04-24T06:09:00;10.6;69.6
9666;DHT22;4871;52.004;5.924;2023-04-24T06:10:06;10.6;69.6
9666;DHT22;4871;52.004;5.924;2023-04-24T06:11:00;10.6;69.3
9666;DHT22;4871;52.004;5.924;2023-04-24T06:12:07;10.7;69.6
9666;DHT22;4871;52.004;5.924;2023-04-24T06:13:00;10.7;69.0
9666;DHT22;4871;52.004;5.924;2023-04-24T06:14:04;10.6;69.2
9666;DHT22;4871;52.004;5.924;2023-04-24T06:15:00;10.7;69.2
9666;DHT22;4871;52.004;5.924;2023-04-24T06:16:04;10.7;69.4
9666;DHT22;4871;52.004;5.924;2023-04-24T06:17:00;10.7;69.3
9666;DHT22;4871;52.004;5.924;2023-04-24T06:18:04;10.7;69.5
9666;DHT22;4871;52.004;5.924;2023-04-24T06:19:00;10.7;69.6
9666;DHT22;4871;52.004;5.924;2023-04-24T06:20:07;10.7;69.0
9666;DHT22;4871;52.004;5.924;2023-04-24T06:21:00;10.7;69.1
9666;DHT22;4871;52.004;5.924;2023-04-24T06:22:06;10.7;68.8
9666;DHT22;4871;52.004;5.924;2023-04-24T06:23:00;10.7;68.9
9666;DHT22;4871;52.004;5.924;2023-04-24T06:24:06;10.7;69.1
9666;DHT22;4871;52.004;5.924;2023-04-24T06:25:00;10.7;69.0
9666;DHT22;4871;52.004;5.924;2023-04-24T06:26:05;10.7;69.1
9666;DHT22;4871;52.004;5.924;2023-04-24T06:27:01;10.7;68.9
9666;DHT22;4871;52.004;5.924;2023-04-24T06:28:06;10.7;68.9
9666;DHT22;4871;52.004;5.924;2023-04-24T06:29:00;10.7;68.6
9666;DHT22;4871;52.004;5.924;2023-04-24T06:30:05;10.7;69.5
9666;DHT22;4871;52.004;5.924;2023-04-24T06:31:00;10.7;68.9
9666;DHT22;4871;52.004;5.924;2023-04-24T06:32:06;10.7;69.0
9666;DHT22;4871;52.004;5.924;2023-04-24T06:33:00;10.7;69.0
9666;DHT22;4871;52.004;5.924;2023-04-24T06:34:05;10.7;69.3
9666;DHT22;4871;52.004;5.924;2023-04-24T06:35:00;10.8;68.9
9666;DHT22;4871;52.004;5.924;2023-04-24T06:36:06;10.7;68.7
9666;DHT22;4871;52.004;5.924;2023-04-24T06:37:00;10.8;68.5
9666;DHT22;4871;52.004;5.924;2023-04-24T06:38:05;10.8;69.1
9666;DHT22;4871;52.004;5.924;2023-04-24T06:39:00;10.8;68.6
9666;DHT22;4871;52.004;5.924;2023-04-24T06:40:06;10.8;68.7
9666;DHT22;4871;52.004;5.924;2023-04-24T06:41:00;10.8;68.6
9666;DHT22;4871;52.004;5.924;2023-04-24T06:42:04;10.8;69.1
9666;DHT22;4871;52.004;5.924;2023-04-24T06:43:02;10.8;68.7
9666;DHT22;4871;52.004;5.924;2023-04-24T06:44:05;10.8;68.7